sensor_id;sensor_type;location;lat;lon;timestamp;temperature;humidity
25438;DHT22;13364;49.084;9.978;2023-06-04T00:02:19;13.80;59.00
25438;DHT22;13364;49.084;9.978;2023-06-04T00:04:46;13.80;58.90
25438;DHT22;13364;49.084;9.978;2023-06-04T00:07:14;13.90;58.70
25438;DHT22;13364;49.084;9.978;2023-06-04T00:09:41;13.90;58.50
25438;DHT22;13364;49.084;9.978;2023-06-04T00:12:09;14.00;58.80
25438;DHT22;13364;49.084;9.978;2023-06-04T00:14:36;14.00;58.60
25438;DHT22;13364;49.084;9.978;2023-06-04T00:17:03;14.00;58.60
25438;DHT22;13364;49.084;9.978;2023-06-04T00:19:30;14.00;58.40
25438;DHT22;13364;49.084;9.978;2023-06-04T00:21:57;14.00;58.50
25438;DHT22;13364;49.084;9.978;2023-06-04T00:24:24;14.10;58.40
25438;DHT22;13364;49.084;9.978;2023-06-04T00:26:51;14.00;58.10
25438;DHT22;13364;49.084;9.978;2023-06-04T00:29:18;13.90;58.20
25438;DHT22;13364;49.084;9.978;2023-06-04T00:31:46;13.90;58.80
25438;DHT22;13364;49.084;9.978;2023-06-04T00:34:13;13.80;58.30
25438;DHT22;13364;49.084;9.978;2023-06-04T00:36:40;13.80;58.50
25438;DHT22;13364;49.084;9.978;2023-06-04T00:39:07;13.80;58.20
25438;DHT22;13364;49.084;9.978;2023-06-04T00:41:34;13.80;58.00
25438;DHT22;13364;49.084;9.978;2023-06-04T00:44:01;13.70;58.00
25438;DHT22;13364;49.084;9.978;2023-06-04T00:46:29;13.70;58.20
25438;DHT22;13364;49.084;9.978;2023-06-04T00:48:58;13.60;57.70
25438;DHT22;13364;49.084;9.978;2023-06-04T00:51:25;13.60;57.30
25438;DHT22;13364;49.084;9.978;2023-06-04T00:53:53;13.50;57.10
25438;DHT22;13364;49.084;9.978;2023-06-04T00:56:20;13.50;57.40
25438;DHT22;13364;49.084;9.978;2023-06-04T00:58:47;13.40;57.10
25438;DHT22;13364;49.084;9.978;2023-06-04T01:01:34;13.40;57.10
25438;DHT22;13364;49.084;9.978;2023-06-04T01:04:04;13.30;56.90
25438;DHT22;13364;49.084;9.978;2023-06-04T01:06:39;13.40;57.00
25438;DHT22;13364;49.084;9.978;2023-06-04T01:09:07;13.30;57.10
25438;DHT22;13364;49.084;9.978;2023-06-04T01:11:37;13.30;57.00
25438;DHT22;13364;49.084;9.978;2023-06-04T01:14:06;13.30;57.10
25438;DHT22;13364;49.084;9.978;2023-06-04T01:25:24;13.40;56.50
25438;DHT22;13364;49.084;9.978;2023-06-04T01:27:55;13.30;56.40
25438;DHT22;13364;49.084;9.978;2023-06-04T01:30:34;13.30;56.60
25438;DHT22;13364;49.084;9.978;2023-06-04T01:33:03;13.30;56.70
25438;DHT22;13364;49.084;9.978;2023-06-04T01:35:30;13.30;56.60
25438;DHT22;13364;49.084;9.978;2023-06-04T01:37:58;13.30;56.30
25438;DHT22;13364;49.084;9.978;2023-06-04T01:40:25;13.20;56.60
25438;DHT22;13364;49.084;9.978;2023-06-04T01:42:53;13.10;56.90
25438;DHT22;13364;49.084;9.978;2023-06-04T01:45:21;13.10;57.10
25438;DHT22;13364;49.084;9.978;2023-06-04T01:47:48;13.10;57.20
25438;DHT22;13364;49.084;9.978;2023-06-04T01:50:16;13.10;57.00
25438;DHT22;13364;49.084;9.978;2023-06-04T01:52:44;13.10;57.30
25438;DHT22;13364;49.084;9.978;2023-06-04T01:55:13;13.10;57.30
25438;DHT22;13364;49.084;9.978;2023-06-04T01:57:42;13.10;56.90
25438;DHT22;13364;49.084;9.978;2023-06-04T02:00:11;13.10;57.40
25438;DHT22;13364;49.084;9.978;2023-06-04T02:02:40;13.10;57.60
25438;DHT22;13364;49.084;9.978;2023-06-04T02:05:09;13.20;56.80
25438;DHT22;13364;49.084;9.978;2023-06-04T02:07:37;13.20;57.00
25438;DHT22;13364;49.084;9.978;2023-06-04T02:10:08;13.20;56.90
25438;DHT22;13364;49.084;9.978;2023-06-04T02:12:40;13.20;56.80
25438;DHT22;13364;49.084;9.978;2023-06-04T02:15:11;13.20;56.50
25438;DHT22;13364;49.084;9.978;2023-06-04T02:17:38;13.20;55.70
25438;DHT22;13364;49.084;9.978;2023-06-04T02:20:07;13.10;56.50
25438;DHT22;13364;49.084;9.978;2023-06-04T02:22:36;13.10;56.60
25438;DHT22;13364;49.084;9.978;2023-06-04T02:25:05;13.10;56.60
25438;DHT22;13364;49.084;9.978;2023-06-04T02:27:32;13.10;56.60
25438;DHT22;13364;49.084;9.978;2023-06-04T02:29:59;13.10;56.30
25438;DHT22;13364;49.084;9.978;2023-06-04T02:32:26;13.20;56.20
25438;DHT22;13364;49.084;9.978;2023-06-04T02:34:53;13.10;56.30
25438;DHT22;13364;49.084;9.978;2023-06-04T02:37:21;13.10;56.50
25438;DHT22;13364;49.084;9.978;2023-06-04T02:39:49;13.10;56.60
25438;DHT22;13364;49.084;9.978;2023-06-04T02:42:16;13.00;56.50
25438;DHT22;13364;49.084;9.978;2023-06-04T02:44:43;13.00;56.50
25438;DHT22;13364;49.084;9.978;2023-06-04T02:47:10;13.00;56.40
25438;DHT22;13364;49.084;9.978;2023-06-04T02:49:37;12.90;56.80
25438;DHT22;13364;49.084;9.978;2023-06-04T02:52:05;12.80;56.80
25438;DHT22;13364;49.084;9.978;2023-06-04T02:54:32;12.70;57.60
25438;DHT22;13364;49.084;9.978;2023-06-04T02:56:59;12.60;57.80
25438;DHT22;13364;49.084;9.978;2023-06-04T02:59:26;12.50;58.00
25438;DHT22;13364;49.084;9.978;2023-06-04T03:01:54;12.50;58.50
25438;DHT22;13364;49.084;9.978;2023-06-04T03:04:21;12.60;58.60
25438;DHT22;13364;49.084;9.978;2023-06-04T03:06:48;12.60;58.50
25438;DHT22;13364;49.084;9.978;2023-06-04T03:09:24;12.70;58.60
25438;DHT22;13364;49.084;9.978;2023-06-04T03:11:51;12.70;58.90
25438;DHT22;13364;49.084;9.978;2023-06-04T03:14:20;12.70;58.70
25438;DHT22;13364;49.084;9.978;2023-06-04T03:16:48;12.70;58.90
25438;DHT22;13364;49.084;9.978;2023-06-04T03:19:16;12.70;58.30
25438;DHT22;13364;49.084;9.978;2023-06-04T03:21:44;12.70;58.80
25438;DHT22;13364;49.084;9.978;2023-06-04T03:24:12;12.70;58.70
25438;DHT22;13364;49.084;9.978;2023-06-04T03:26:39;12.60;59.00
25438;DHT22;13364;49.084;9.978;2023-06-04T03:29:06;12.60;58.80
25438;DHT22;13364;49.084;9.978;2023-06-04T03:31:34;12.50;59.20
25438;DHT22;13364;49.084;9.978;2023-06-04T03:34:01;12.50;59.30
25438;DHT22;13364;49.084;9.978;2023-06-04T03:36:30;12.50;59.80
25438;DHT22;13364;49.084;9.978;2023-06-04T03:39:05;12.50;59.80
25438;DHT22;13364;49.084;9.978;2023-06-04T03:41:33;12.40;59.90
25438;DHT22;13364;49.084;9.978;2023-06-04T03:44:00;12.40;59.60
25438;DHT22;13364;49.084;9.978;2023-06-04T03:46:29;12.40;59.80
25438;DHT22;13364;49.084;9.978;2023-06-04T03:49:02;12.40;59.90
25438;DHT22;13364;49.084;9.978;2023-06-04T03:51:30;12.30;60.00
25438;DHT22;13364;49.084;9.978;2023-06-04T03:53:58;12.40;60.00
25438;DHT22;13364;49.084;9.978;2023-06-04T03:56:26;12.40;60.20
25438;DHT22;13364;49.084;9.978;2023-06-04T03:58:55;12.40;60.40
25438;DHT22;13364;49.084;9.978;2023-06-04T04:01:23;12.40;60.20
25438;DHT22;13364;49.084;9.978;2023-06-04T04:03:51;12.40;59.30
25438;DHT22;13364;49.084;9.978;2023-06-04T04:06:19;12.40;59.70
25438;DHT22;13364;49.084;9.978;2023-06-04T04:08:47;12.50;59.40
25438;DHT22;13364;49.084;9.978;2023-06-04T04:11:18;12.50;59.40
25438;DHT22;13364;49.084;9.978;2023-06-04T04:13:46;12.50;58.90
25438;DHT22;13364;49.084;9.978;2023-06-04T04:16:13;12.60;59.00
25438;DHT22;13364;49.084;9.978;2023-06-04T04:18:42;12.60;59.00
25438;DHT22;13364;49.084;9.978;2023-06-04T04:21:10;12.60;58.50
25438;DHT22;13364;49.084;9.978;2023-06-04T04:23:39;12.70;58.30
25438;DHT22;13364;49.084;9.978;2023-06-04T04:26:09;12.60;58.60
25438;DHT22;13364;49.084;9.978;2023-06-04T04:28:46;12.70;58.10
25438;DHT22;13364;49.084;9.978;2023-06-04T04:31:13;12.70;58.20
25438;DHT22;13364;49.084;9.978;2023-06-04T04:33:42;12.70;58.60
25438;DHT22;13364;49.084;9.978;2023-06-04T04:36:11;12.70;58.40
25438;DHT22;13364;49.084;9.978;2023-06-04T04:38:46;12.80;58.50
25438;DHT22;13364;49.084;9.978;2023-06-04T04:41:13;12.80;58.90
25438;DHT22;13364;49.084;9.978;2023-06-04T04:43:41;12.90;58.80
25438;DHT22;13364;49.084;9.978;2023-06-04T04:46:18;13.00;59.00
25438;DHT22;13364;49.084;9.978;2023-06-04T04:48:46;13.00;59.70
25438;DHT22;13364;49.084;9.978;2023-06-04T04:51:13;13.10;60.00
25438;DHT22;13364;49.084;9.978;2023-06-04T04:53:40;13.20;59.20
25438;DHT22;13364;49.084;9.978;2023-06-04T04:56:07;13.30;59.10
25438;DHT22;13364;49.084;9.978;2023-06-04T04:58:38;13.30;58.80
25438;DHT22;13364;49.084;9.978;2023-06-04T05:01:05;13.40;58.80
25438;DHT22;13364;49.084;9.978;2023-06-04T05:03:33;13.50;59.50
25438;DHT22;13364;49.084;9.978;2023-06-04T05:06:00;13.60;59.40
25438;DHT22;13364;49.084;9.978;2023-06-04T05:08:27;13.60;59.50
25438;DHT22;13364;49.084;9.978;2023-06-04T05:10:54;13.80;59.10
25438;DHT22;13364;49.084;9.978;2023-06-04T05:13:22;13.80;59.20
25438;DHT22;13364;49.084;9.978;2023-06-04T05:15:54;13.90;59.10
25438;DHT22;13364;49.084;9.978;2023-06-04T05:18:25;13.90;58.60
25438;DHT22;13364;49.084;9.978;2023-06-04T05:20:59;14.00;58.50
25438;DHT22;13364;49.084;9.978;2023-06-04T05:23:29;14.10;58.80
25438;DHT22;13364;49.084;9.978;2023-06-04T05:26:01;14.10;58.30
25438;DHT22;13364;49.084;9.978;2023-06-04T05:28:29;14.20;58.90
25438;DHT22;13364;49.084;9.978;2023-06-04T05:30:56;14.20;59.10
25438;DHT22;13364;49.084;9.978;2023-06-04T05:33:30;14.30;58.10
25438;DHT22;13364;49.084;9.978;2023-06-04T05:36:02;14.30;58.30
25438;DHT22;13364;49.084;9.978;2023-06-04T05:38:34;14.40;58.40
25438;DHT22;13364;49.084;9.978;2023-06-04T05:41:06;14.40;58.30
25438;DHT22;13364;49.084;9.978;2023-06-04T05:43:36;14.40;59.20
25438;DHT22;13364;49.084;9.978;2023-06-04T05:46:04;14.40;58.60
25438;DHT22;13364;49.084;9.978;2023-06-04T05:48:33;14.50;57.90
25438;DHT22;13364;49.084;9.978;2023-06-04T05:51:00;14.50;57.60
25438;DHT22;13364;49.084;9.978;2023-06-04T05:53:27;14.50;58.20
25438;DHT22;13364;49.084;9.978;2023-06-04T05:55:55;14.60;58.30
25438;DHT22;13364;49.084;9.978;2023-06-04T05:58:22;14.60;58.10
25438;DHT22;13364;49.084;9.978;2023-06-04T06:00:50;14.70;57.70
25438;DHT22;13364;49.084;9.978;2023-06-04T06:03:18;14.80;58.40
25438;DHT22;13364;49.084;9.978;2023-06-04T06:05:48;14.90;57.60
25438;DHT22;13364;49.084;9.978;2023-06-04T06:08:15;14.90;58.30
25438;DHT22;13364;49.084;9.978;2023-06-04T06:10:42;15.00;57.90
25438;DHT22;13364;49.084;9.978;2023-06-04T06:13:09;15.10;57.50
25438;DHT22;13364;49.084;9.978;2023-06-04T06:15:37;15.10;57.10
25438;DHT22;13364;49.084;9.978;2023-06-04T06:18:04;15.20;56.80
25438;DHT22;13364;49.084;9.978;2023-06-04T06:20:32;15.20;56.40
25438;DHT22;13364;49.084;9.978;2023-06-04T06:23:06;15.30;56.90
25438;DHT22;13364;49.084;9.978;2023-06-04T06:25:34;15.40;56.80
25438;DHT22;13364;49.084;9.978;2023-06-04T06:28:06;15.50;55.80
25438;DHT22;13364;49.084;9.978;2023-06-04T06:30:35;15.50;56.90
25438;DHT22;13364;49.084;9.978;2023-06-04T06:33:03;15.50;57.20
25438;DHT22;13364;49.084;9.978;2023-06-04T06:35:30;15.70;57.10
25438;DHT22;13364;49.084;9.978;2023-06-04T06:37:57;15.80;56.20
25438;DHT22;13364;49.084;9.978;2023-06-04T06:40:24;15.90;55.70
25438;DHT22;13364;49.084;9.978;2023-06-04T06:42:51;15.90;56.00
25438;DHT22;13364;49.084;9.978;2023-06-04T06:45:19;16.10;56.80
25438;DHT22;13364;49.084;9.978;2023-06-04T06:47:46;16.10;55.70
25438;DHT22;13364;49.084;9.978;2023-06-04T06:50:14;16.10;55.90
25438;DHT22;13364;49.084;9.978;2023-06-04T06:52:41;16.20;55.40
25438;DHT22;13364;49.084;9.978;2023-06-04T06:55:08;16.30;55.90
25438;DHT22;13364;49.084;9.978;2023-06-04T06:57:35;16.40;56.20
25438;DHT22;13364;49.084;9.978;2023-06-04T07:00:03;16.50;55.70
25438;DHT22;13364;49.084;9.978;2023-06-04T07:02:30;16.50;56.10
25438;DHT22;13364;49.084;9.978;2023-06-04T07:04:57;16.60;55.90
25438;DHT22;13364;49.084;9.978;2023-06-04T07:07:24;16.70;56.00
25438;DHT22;13364;49.084;9.978;2023-06-04T07:09:51;16.80;56.50
25438;DHT22;13364;49.084;9.978;2023-06-04T07:12:19;17.00;55.80
25438;DHT22;13364;49.084;9.978;2023-06-04T07:14:46;17.10;55.20
25438;DHT22;13364;49.084;9.978;2023-06-04T07:17:13;17.20;54.90
25438;DHT22;13364;49.084;9.978;2023-06-04T07:19:40;17.30;55.50
25438;DHT22;13364;49.084;9.978;2023-06-04T07:22:07;17.40;55.00
25438;DHT22;13364;49.084;9.978;2023-06-04T07:24:34;17.40;54.70
25438;DHT22;13364;49.084;9.978;2023-06-04T07:27:01;17.50;55.70
25438;DHT22;13364;49.084;9.978;2023-06-04T07:29:28;17.60;54.80
25438;DHT22;13364;49.084;9.978;2023-06-04T07:31:56;17.70;54.70
25438;DHT22;13364;49.084;9.978;2023-06-04T07:34:23;17.80;54.10
25438;DHT22;13364;49.084;9.978;2023-06-04T07:36:50;17.90;54.90
25438;DHT22;13364;49.084;9.978;2023-06-04T07:39:17;18.10;54.40
25438;DHT22;13364;49.084;9.978;2023-06-04T07:41:44;18.20;54.20
25438;DHT22;13364;49.084;9.978;2023-06-04T07:44:11;18.40;54.00
25438;DHT22;13364;49.084;9.978;2023-06-04T07:46:38;18.70;53.30
25438;DHT22;13364;49.084;9.978;2023-06-04T07:49:05;18.90;52.60
25438;DHT22;13364;49.084;9.978;2023-06-04T07:51:32;19.00;52.50
25438;DHT22;13364;49.084;9.978;2023-06-04T07:54:00;19.10;51.60
25438;DHT22;13364;49.084;9.978;2023-06-04T07:56:27;19.20;51.40
25438;DHT22;13364;49.084;9.978;2023-06-04T07:58:54;19.30;51.40
25438;DHT22;13364;49.084;9.978;2023-06-04T08:01:22;19.50;51.90
25438;DHT22;13364;49.084;9.978;2023-06-04T08:03:50;19.80;51.80
25438;DHT22;13364;49.084;9.978;2023-06-04T08:06:17;19.90;50.60
25438;DHT22;13364;49.084;9.978;2023-06-04T08:08:45;20.20;51.00
25438;DHT22;13364;49.084;9.978;2023-06-04T08:11:15;20.30;49.50
25438;DHT22;13364;49.084;9.978;2023-06-04T08:13:43;20.40;48.60
25438;DHT22;13364;49.084;9.978;2023-06-04T08:16:10;20.50;48.40
25438;DHT22;13364;49.084;9.978;2023-06-04T08:18:41;20.80;47.60
25438;DHT22;13364;49.084;9.978;2023-06-04T08:21:10;21.10;47.30
25438;DHT22;13364;49.084;9.978;2023-06-04T08:23:43;21.30;46.00
25438;DHT22;13364;49.084;9.978;2023-06-04T08:26:10;21.60;45.80
25438;DHT22;13364;49.084;9.978;2023-06-04T08:28:38;21.80;45.80
25438;DHT22;13364;49.084;9.978;2023-06-04T08:31:05;22.10;45.30
25438;DHT22;13364;49.084;9.978;2023-06-04T08:33:33;22.30;44.50
25438;DHT22;13364;49.084;9.978;2023-06-04T08:36:00;22.40;43.60
25438;DHT22;13364;49.084;9.978;2023-06-04T08:38:27;22.50;44.10
25438;DHT22;13364;49.084;9.978;2023-06-04T08:41:09;22.70;42.90
25438;DHT22;13364;49.084;9.978;2023-06-04T08:43:38;22.90;43.30
25438;DHT22;13364;49.084;9.978;2023-06-04T08:46:06;23.10;41.90
25438;DHT22;13364;49.084;9.978;2023-06-04T08:48:37;23.30;42.10
25438;DHT22;13364;49.084;9.978;2023-06-04T08:51:06;23.50;41.40
25438;DHT22;13364;49.084;9.978;2023-06-04T08:53:35;23.70;40.00
25438;DHT22;13364;49.084;9.978;2023-06-04T08:56:03;24.00;40.10
25438;DHT22;13364;49.084;9.978;2023-06-04T08:58:31;24.20;38.80
25438;DHT22;13364;49.084;9.978;2023-06-04T09:01:02;24.40;37.60
25438;DHT22;13364;49.084;9.978;2023-06-04T09:03:29;24.50;38.30
25438;DHT22;13364;49.084;9.978;2023-06-04T09:05:59;24.70;39.00
25438;DHT22;13364;49.084;9.978;2023-06-04T09:08:27;24.70;38.30
25438;DHT22;13364;49.084;9.978;2023-06-04T09:10:58;24.80;38.50
25438;DHT22;13364;49.084;9.978;2023-06-04T09:13:28;24.90;38.10
25438;DHT22;13364;49.084;9.978;2023-06-04T09:16:01;25.10;38.60
25438;DHT22;13364;49.084;9.978;2023-06-04T09:18:30;25.30;37.60
25438;DHT22;13364;49.084;9.978;2023-06-04T09:21:15;25.50;35.90
25438;DHT22;13364;49.084;9.978;2023-06-04T09:23:46;25.60;37.10
25438;DHT22;13364;49.084;9.978;2023-06-04T09:26:14;25.80;35.90
25438;DHT22;13364;49.084;9.978;2023-06-04T09:28:45;26.00;34.90
25438;DHT22;13364;49.084;9.978;2023-06-04T09:31:16;26.10;34.70
25438;DHT22;13364;49.084;9.978;2023-06-04T09:33:47;26.20;34.90
25438;DHT22;13364;49.084;9.978;2023-06-04T09:36:15;26.40;34.80
25438;DHT22;13364;49.084;9.978;2023-06-04T09:38:43;26.60;35.40
25438;DHT22;13364;49.084;9.978;2023-06-04T09:41:17;26.70;34.20
25438;DHT22;13364;49.084;9.978;2023-06-04T09:44:02;26.90;33.50
25438;DHT22;13364;49.084;9.978;2023-06-04T09:46:30;27.10;33.10
25438;DHT22;13364;49.084;9.978;2023-06-04T09:49:02;26.90;33.80
25438;DHT22;13364;49.084;9.978;2023-06-04T09:51:30;26.70;33.70
25438;DHT22;13364;49.084;9.978;2023-06-04T09:54:00;26.30;33.50
25438;DHT22;13364;49.084;9.978;2023-06-04T09:56:27;25.60;34.50
25438;DHT22;13364;49.084;9.978;2023-06-04T09:58:57;25.30;37.50
25438;DHT22;13364;49.084;9.978;2023-06-04T10:01:26;25.40;37.30
25438;DHT22;13364;49.084;9.978;2023-06-04T10:03:54;25.80;35.50
25438;DHT22;13364;49.084;9.978;2023-06-04T10:06:23;26.10;36.10
25438;DHT22;13364;49.084;9.978;2023-06-04T10:08:53;26.40;36.10
25438;DHT22;13364;49.084;9.978;2023-06-04T10:11:25;26.70;34.70
25438;DHT22;13364;49.084;9.978;2023-06-04T10:16:58;27.20;33.90
25438;DHT22;13364;49.084;9.978;2023-06-04T10:19:27;27.30;33.10
25438;DHT22;13364;49.084;9.978;2023-06-04T10:21:55;26.80;33.10
25438;DHT22;13364;49.084;9.978;2023-06-04T10:24:22;26.70;34.20
25438;DHT22;13364;49.084;9.978;2023-06-04T10:26:51;26.80;34.20
25438;DHT22;13364;49.084;9.978;2023-06-04T10:29:20;27.10;34.00
25438;DHT22;13364;49.084;9.978;2023-06-04T10:31:52;27.30;31.90
25438;DHT22;13364;49.084;9.978;2023-06-04T10:34:20;27.50;32.80
25438;DHT22;13364;49.084;9.978;2023-06-04T10:36:47;27.60;33.40
25438;DHT22;13364;49.084;9.978;2023-06-04T10:39:24;27.80;32.50
25438;DHT22;13364;49.084;9.978;2023-06-04T10:42:02;28.10;31.50
25438;DHT22;13364;49.084;9.978;2023-06-04T10:44:30;28.20;32.10
25438;DHT22;13364;49.084;9.978;2023-06-04T10:46:58;28.30;33.30
25438;DHT22;13364;49.084;9.978;2023-06-04T10:49:29;28.10;33.10
25438;DHT22;13364;49.084;9.978;2023-06-04T10:51:56;27.80;33.10
25438;DHT22;13364;49.084;9.978;2023-06-04T10:54:25;27.90;33.60
25438;DHT22;13364;49.084;9.978;2023-06-04T10:56:52;28.10;32.70
25438;DHT22;13364;49.084;9.978;2023-06-04T10:59:22;28.20;30.40
25438;DHT22;13364;49.084;9.978;2023-06-04T11:01:51;27.60;32.30
25438;DHT22;13364;49.084;9.978;2023-06-04T11:04:25;27.40;33.60
25438;DHT22;13364;49.084;9.978;2023-06-04T11:07:05;27.40;33.50
25438;DHT22;13364;49.084;9.978;2023-06-04T11:09:58;27.40;31.70
25438;DHT22;13364;49.084;9.978;2023-06-04T11:12:24;27.20;32.90
25438;DHT22;13364;49.084;9.978;2023-06-04T11:14:57;27.50;32.80
25438;DHT22;13364;49.084;9.978;2023-06-04T11:17:25;27.80;32.90
25438;DHT22;13364;49.084;9.978;2023-06-04T11:19:52;28.10;31.40
25438;DHT22;13364;49.084;9.978;2023-06-04T11:22:23;28.30;32.10
25438;DHT22;13364;49.084;9.978;2023-06-04T11:24:56;28.70;31.20
25438;DHT22;13364;49.084;9.978;2023-06-04T11:27:26;28.90;30.70
25438;DHT22;13364;49.084;9.978;2023-06-04T11:30:03;28.60;29.50
25438;DHT22;13364;49.084;9.978;2023-06-04T11:32:30;28.10;30.30
25438;DHT22;13364;49.084;9.978;2023-06-04T11:35:04;28.00;31.20
25438;DHT22;13364;49.084;9.978;2023-06-04T11:37:33;28.20;30.20
25438;DHT22;13364;49.084;9.978;2023-06-04T11:40:01;28.10;30.70
25438;DHT22;13364;49.084;9.978;2023-06-04T11:42:29;27.90;33.00
25438;DHT22;13364;49.084;9.978;2023-06-04T11:44:57;27.70;32.30
25438;DHT22;13364;49.084;9.978;2023-06-04T11:47:25;27.80;32.00
25438;DHT22;13364;49.084;9.978;2023-06-04T11:49:55;28.10;31.90
25438;DHT22;13364;49.084;9.978;2023-06-04T11:52:23;28.40;30.80
25438;DHT22;13364;49.084;9.978;2023-06-04T11:54:51;28.70;30.70
25438;DHT22;13364;49.084;9.978;2023-06-04T11:57:18;29.10;31.30
25438;DHT22;13364;49.084;9.978;2023-06-04T11:59:46;29.40;29.40
25438;DHT22;13364;49.084;9.978;2023-06-04T12:02:13;29.70;29.60
25438;DHT22;13364;49.084;9.978;2023-06-04T12:04:40;29.80;28.10
25438;DHT22;13364;49.084;9.978;2023-06-04T12:07:07;29.80;29.60
25438;DHT22;13364;49.084;9.978;2023-06-04T12:09:35;29.90;30.00
25438;DHT22;13364;49.084;9.978;2023-06-04T12:12:07;30.20;29.80
25438;DHT22;13364;49.084;9.978;2023-06-04T12:14:34;30.50;28.00
25438;DHT22;13364;49.084;9.978;2023-06-04T12:17:08;30.60;28.40
25438;DHT22;13364;49.084;9.978;2023-06-04T12:19:51;30.40;29.20
25438;DHT22;13364;49.084;9.978;2023-06-04T12:22:19;30.50;28.40
25438;DHT22;13364;49.084;9.978;2023-06-04T12:24:49;30.60;29.40
25438;DHT22;13364;49.084;9.978;2023-06-04T12:27:16;30.70;28.90
25438;DHT22;13364;49.084;9.978;2023-06-04T12:29:57;30.80;28.80
25438;DHT22;13364;49.084;9.978;2023-06-04T12:32:25;31.00;27.90
25438;DHT22;13364;49.084;9.978;2023-06-04T12:34:52;31.00;27.60
25438;DHT22;13364;49.084;9.978;2023-06-04T12:37:21;30.90;27.00
25438;DHT22;13364;49.084;9.978;2023-06-04T12:39:49;31.00;26.70
25438;DHT22;13364;49.084;9.978;2023-06-04T12:42:19;31.10;27.30
25438;DHT22;13364;49.084;9.978;2023-06-04T12:44:47;31.20;26.10
25438;DHT22;13364;49.084;9.978;2023-06-04T12:47:14;31.20;26.60
25438;DHT22;13364;49.084;9.978;2023-06-04T12:49:43;31.30;27.10
25438;DHT22;13364;49.084;9.978;2023-06-04T12:52:10;31.30;26.70
25438;DHT22;13364;49.084;9.978;2023-06-04T12:54:37;31.30;26.60
25438;DHT22;13364;49.084;9.978;2023-06-04T12:57:05;31.30;26.50
25438;DHT22;13364;49.084;9.978;2023-06-04T12:59:32;31.00;27.00
25438;DHT22;13364;49.084;9.978;2023-06-04T13:01:59;30.90;27.60
25438;DHT22;13364;49.084;9.978;2023-06-04T13:04:26;31.00;27.10
25438;DHT22;13364;49.084;9.978;2023-06-04T13:06:53;31.10;27.10
25438;DHT22;13364;49.084;9.978;2023-06-04T13:09:26;30.80;27.30
25438;DHT22;13364;49.084;9.978;2023-06-04T13:11:55;30.80;28.70
25438;DHT22;13364;49.084;9.978;2023-06-04T13:14:22;30.70;28.70
25438;DHT22;13364;49.084;9.978;2023-06-04T13:16:49;30.70;28.20
25438;DHT22;13364;49.084;9.978;2023-06-04T13:19:18;30.80;27.70
25438;DHT22;13364;49.084;9.978;2023-06-04T13:21:48;30.80;28.00
25438;DHT22;13364;49.084;9.978;2023-06-04T13:24:16;30.90;26.70
25438;DHT22;13364;49.084;9.978;2023-06-04T13:26:43;30.60;28.40
25438;DHT22;13364;49.084;9.978;2023-06-04T13:29:10;30.70;28.80
25438;DHT22;13364;49.084;9.978;2023-06-04T13:31:37;30.80;27.50
25438;DHT22;13364;49.084;9.978;2023-06-04T13:34:06;30.40;27.50
25438;DHT22;13364;49.084;9.978;2023-06-04T13:36:52;30.00;28.50
25438;DHT22;13364;49.084;9.978;2023-06-04T13:39:19;30.00;28.80
25438;DHT22;13364;49.084;9.978;2023-06-04T13:41:46;29.80;27.50
25438;DHT22;13364;49.084;9.978;2023-06-04T13:44:13;29.40;29.10
25438;DHT22;13364;49.084;9.978;2023-06-04T13:46:41;29.20;29.70
25438;DHT22;13364;49.084;9.978;2023-06-04T13:49:09;29.30;29.70
25438;DHT22;13364;49.084;9.978;2023-06-04T13:51:36;29.60;28.20
25438;DHT22;13364;49.084;9.978;2023-06-04T13:54:03;29.70;29.20
25438;DHT22;13364;49.084;9.978;2023-06-04T13:56:30;29.90;28.60
25438;DHT22;13364;49.084;9.978;2023-06-04T13:58:57;29.90;28.10
25438;DHT22;13364;49.084;9.978;2023-06-04T14:01:24;30.00;29.00
25438;DHT22;13364;49.084;9.978;2023-06-04T14:03:52;30.10;28.90
25438;DHT22;13364;49.084;9.978;2023-06-04T14:06:19;30.20;29.50
25438;DHT22;13364;49.084;9.978;2023-06-04T14:08:46;30.40;28.60
25438;DHT22;13364;49.084;9.978;2023-06-04T14:11:14;30.50;27.90
25438;DHT22;13364;49.084;9.978;2023-06-04T14:13:41;30.60;27.70
25438;DHT22;13364;49.084;9.978;2023-06-04T14:16:12;30.70;27.60
25438;DHT22;13364;49.084;9.978;2023-06-04T14:18:39;30.60;27.10
25438;DHT22;13364;49.084;9.978;2023-06-04T14:21:06;29.90;27.40
25438;DHT22;13364;49.084;9.978;2023-06-04T14:23:34;29.20;29.10
25438;DHT22;13364;49.084;9.978;2023-06-04T14:26:01;29.00;29.10
25438;DHT22;13364;49.084;9.978;2023-06-04T14:28:28;28.70;30.20
25438;DHT22;13364;49.084;9.978;2023-06-04T14:30:56;28.30;29.80
25438;DHT22;13364;49.084;9.978;2023-06-04T14:33:24;27.90;30.30
25438;DHT22;13364;49.084;9.978;2023-06-04T14:35:51;27.90;30.50
25438;DHT22;13364;49.084;9.978;2023-06-04T14:38:18;28.00;29.80
25438;DHT22;13364;49.084;9.978;2023-06-04T14:40:46;27.80;29.80
25438;DHT22;13364;49.084;9.978;2023-06-04T14:43:13;27.30;30.60
25438;DHT22;13364;49.084;9.978;2023-06-04T14:45:40;27.30;29.70
25438;DHT22;13364;49.084;9.978;2023-06-04T14:48:07;27.50;30.70
25438;DHT22;13364;49.084;9.978;2023-06-04T14:50:37;27.40;30.80
25438;DHT22;13364;49.084;9.978;2023-06-04T14:53:04;27.20;31.30
25438;DHT22;13364;49.084;9.978;2023-06-04T14:55:34;27.30;31.50
25438;DHT22;13364;49.084;9.978;2023-06-04T14:58:02;27.60;30.90
25438;DHT22;13364;49.084;9.978;2023-06-04T15:00:32;27.90;30.30
25438;DHT22;13364;49.084;9.978;2023-06-04T15:02:59;28.10;30.70
25438;DHT22;13364;49.084;9.978;2023-06-04T15:05:27;28.10;30.10
25438;DHT22;13364;49.084;9.978;2023-06-04T15:07:54;28.30;28.40
25438;DHT22;13364;49.084;9.978;2023-06-04T15:10:21;28.20;29.10
25438;DHT22;13364;49.084;9.978;2023-06-04T15:12:48;28.10;30.40
25438;DHT22;13364;49.084;9.978;2023-06-04T15:15:15;28.00;29.90
25438;DHT22;13364;49.084;9.978;2023-06-04T15:17:42;27.90;29.00
25438;DHT22;13364;49.084;9.978;2023-06-04T15:20:14;27.70;30.10
25438;DHT22;13364;49.084;9.978;2023-06-04T15:22:41;27.60;30.90
25438;DHT22;13364;49.084;9.978;2023-06-04T15:25:09;27.70;30.80
25438;DHT22;13364;49.084;9.978;2023-06-04T15:27:36;27.90;30.00
25438;DHT22;13364;49.084;9.978;2023-06-04T15:30:06;27.70;29.80
25438;DHT22;13364;49.084;9.978;2023-06-04T15:32:33;27.20;30.40
25438;DHT22;13364;49.084;9.978;2023-06-04T15:35:02;26.90;31.20
25438;DHT22;13364;49.084;9.978;2023-06-04T15:37:29;27.00;31.50
25438;DHT22;13364;49.084;9.978;2023-06-04T15:39:56;27.00;30.70
25438;DHT22;13364;49.084;9.978;2023-06-04T15:42:25;27.00;31.10
25438;DHT22;13364;49.084;9.978;2023-06-04T15:44:52;27.20;31.00
25438;DHT22;13364;49.084;9.978;2023-06-04T15:47:19;27.40;31.40
25438;DHT22;13364;49.084;9.978;2023-06-04T15:49:46;27.60;31.30
25438;DHT22;13364;49.084;9.978;2023-06-04T15:52:13;27.60;31.70